createdAt,value
2018-12-13T00:00:12.402Z,1020.22
2018-12-13T00:01:12.389Z,1020.22
2018-12-13T00:02:12.380Z,1020.23
2018-12-13T00:03:12.361Z,1020.19
2018-12-13T00:04:12.409Z,1020.15
2018-12-13T00:05:12.350Z,1020.11
2018-12-13T00:06:12.363Z,1020.12
2018-12-13T00:07:12.330Z,1020.12
2018-12-13T00:08:12.311Z,1020.05
2018-12-13T00:09:12.315Z,1020.15
2018-12-13T00:10:12.299Z,1020.10
2018-12-13T00:11:12.323Z,1020.09
2018-12-13T00:12:12.303Z,1020.11
2018-12-13T00:13:12.257Z,1020.00
2018-12-13T00:14:12.246Z,1020.06
2018-12-13T00:15:12.237Z,1020.02
2018-12-13T00:16:12.251Z,1020.00
2018-12-13T00:17:12.219Z,1019.93
2018-12-13T00:18:12.219Z,1019.99
2018-12-13T00:19:12.196Z,1019.93
2018-12-13T00:20:12.203Z,1020.01
2018-12-13T00:21:12.176Z,1019.96
2018-12-13T00:22:12.167Z,1020.00
2018-12-13T00:23:12.146Z,1020.02
2018-12-13T00:24:12.143Z,1020.00
2018-12-13T00:25:12.189Z,1019.97
2018-12-13T00:26:12.115Z,1019.93
2018-12-13T00:27:12.111Z,1019.94
2018-12-13T00:28:12.092Z,1019.95
2018-12-13T00:29:12.092Z,1019.91
2018-12-13T00:30:12.092Z,1019.84
2018-12-13T00:31:12.097Z,1019.93
2018-12-13T00:32:12.085Z,1019.85
2018-12-13T00:33:12.041Z,1019.89
2018-12-13T00:34:12.028Z,1019.88
2018-12-13T00:35:12.013Z,1019.89
2018-12-13T00:36:12.050Z,1019.86
2018-12-13T00:37:12.026Z,1019.84
2018-12-13T00:38:11.984Z,1019.85
2018-12-13T00:39:11.975Z,1019.83
2018-12-13T00:40:11.958Z,1019.81
2018-12-13T00:41:12.016Z,1019.79
2018-12-13T00:42:11.975Z,1019.77
2018-12-13T00:43:11.928Z,1019.84
2018-12-13T00:44:11.926Z,1019.83
2018-12-13T00:45:11.908Z,1019.78
2018-12-13T00:46:11.901Z,1019.77
2018-12-13T00:47:11.930Z,1019.85
2018-12-13T00:48:11.869Z,1019.79
2018-12-13T00:49:11.913Z,1019.78
2018-12-13T00:50:11.903Z,1019.75
2018-12-13T00:51:11.836Z,1019.77
2018-12-13T00:52:11.854Z,1019.81
2018-12-13T00:53:11.822Z,1019.73
2018-12-13T00:54:11.829Z,1019.79
2018-12-13T00:55:11.792Z,1019.77
2018-12-13T00:56:11.786Z,1019.72
2018-12-13T00:57:11.902Z,1019.74
2018-12-13T00:58:11.780Z,1019.68
2018-12-13T00:59:11.755Z,1019.72
2018-12-13T01:00:11.748Z,1019.74
2018-12-13T01:01:11.729Z,1019.62
2018-12-13T01:02:11.762Z,1019.60
2018-12-13T01:03:11.733Z,1019.61
2018-12-13T01:04:11.703Z,1019.59
2018-12-13T01:05:11.682Z,1019.57
2018-12-13T01:06:11.697Z,1019.66
2018-12-13T01:07:11.662Z,1019.59
2018-12-13T01:08:11.704Z,1019.54
2018-12-13T01:09:11.647Z,1019.59
2018-12-13T01:10:11.635Z,1019.55
2018-12-13T01:11:11.623Z,1019.47
2018-12-13T01:12:11.612Z,1019.52
2018-12-13T01:13:11.651Z,1019.46
2018-12-13T01:14:11.589Z,1019.47
2018-12-13T01:15:11.608Z,1019.37
2018-12-13T01:16:11.578Z,1019.51
2018-12-13T01:17:12.150Z,1019.49
2018-12-13T01:18:11.543Z,1019.54
2018-12-13T01:19:11.532Z,1019.53
2018-12-13T01:20:11.565Z,1019.52
2018-12-13T01:21:11.612Z,1019.51
2018-12-13T01:22:11.538Z,1019.55
2018-12-13T01:23:11.490Z,1019.56
2018-12-13T01:24:11.550Z,1019.53
2018-12-13T01:25:11.508Z,1019.57
2018-12-13T01:26:11.460Z,1019.58
2018-12-13T01:27:11.456Z,1019.56
2018-12-13T01:28:11.436Z,1019.54
2018-12-13T01:29:11.467Z,1019.54
2018-12-13T01:30:11.412Z,1019.58
2018-12-13T01:31:11.477Z,1019.63
2018-12-13T01:32:11.410Z,1019.63
2018-12-13T01:33:11.385Z,1019.54
2018-12-13T01:34:11.369Z,1019.64
2018-12-13T01:35:11.376Z,1019.52
2018-12-13T01:36:11.386Z,1019.51
2018-12-13T01:37:11.400Z,1019.56
2018-12-13T01:38:11.326Z,1019.52
2018-12-13T01:39:11.317Z,1019.57
2018-12-13T01:40:11.364Z,1019.62
2018-12-13T01:41:11.322Z,1019.64
2018-12-13T01:42:11.284Z,1019.51
2018-12-13T01:43:11.283Z,1019.56
2018-12-13T01:44:11.265Z,1019.51
2018-12-13T01:45:11.257Z,1019.52
2018-12-13T01:46:11.282Z,1019.47
2018-12-13T01:47:11.260Z,1019.47
2018-12-13T01:48:11.222Z,1019.49
2018-12-13T01:49:11.209Z,1019.48
2018-12-13T01:50:11.206Z,1019.48
2018-12-13T01:51:11.231Z,1019.44
2018-12-13T01:52:11.202Z,1019.48
2018-12-13T01:53:11.215Z,1019.44
2018-12-13T01:54:11.155Z,1019.44
2018-12-13T01:55:11.147Z,1019.49
2018-12-13T01:56:11.137Z,1019.39
2018-12-13T01:57:11.177Z,1019.42
2018-12-13T01:58:11.120Z,1019.41
2018-12-13T01:59:11.099Z,1019.39
2018-12-13T02:00:11.091Z,1019.36
2018-12-13T02:01:11.184Z,1019.37
2018-12-13T02:02:11.126Z,1019.34
2018-12-13T02:03:11.055Z,1019.40
2018-12-13T02:04:11.050Z,1019.33
2018-12-13T02:05:11.029Z,1019.33
2018-12-13T02:06:11.022Z,1019.35
2018-12-13T02:07:11.047Z,1019.31
2018-12-13T02:08:10.999Z,1019.26
2018-12-13T02:09:11.010Z,1019.30
2018-12-13T02:10:10.981Z,1019.29
2018-12-13T02:11:10.972Z,1019.32
2018-12-13T02:12:10.984Z,1019.29
2018-12-13T02:13:10.983Z,1019.26
2018-12-13T02:14:10.942Z,1019.24
2018-12-13T02:15:10.958Z,1019.25
2018-12-13T02:16:10.917Z,1019.23
2018-12-13T02:17:10.903Z,1019.22
2018-12-13T02:18:10.889Z,1019.24
2018-12-13T02:19:10.919Z,1019.27
2018-12-13T02:20:10.917Z,1019.22
2018-12-13T02:21:10.862Z,1019.20
2018-12-13T02:22:10.853Z,1019.22
2018-12-13T02:23:10.841Z,1019.21
2018-12-13T02:24:10.856Z,1019.21
2018-12-13T02:25:10.852Z,1019.19
2018-12-13T02:26:10.805Z,1019.18
2018-12-13T02:27:10.795Z,1019.21
2018-12-13T02:28:10.781Z,1019.18
2018-12-13T02:29:10.829Z,1019.23
2018-12-13T02:30:10.801Z,1019.15
2018-12-13T02:31:10.787Z,1019.12
2018-12-13T02:32:10.741Z,1019.14
2018-12-13T02:33:10.730Z,1019.16
2018-12-13T02:34:10.725Z,1019.14
2018-12-13T02:35:10.719Z,1019.14
2018-12-13T02:36:10.783Z,1019.09
2018-12-13T02:37:10.687Z,1019.19
2018-12-13T02:38:10.676Z,1019.15
2018-12-13T02:39:10.662Z,1019.14
2018-12-13T02:40:10.677Z,1019.10
2018-12-13T02:41:10.679Z,1019.18
2018-12-13T02:42:10.632Z,1019.12
2018-12-13T02:43:10.628Z,1019.08
2018-12-13T02:44:10.629Z,1019.11
2018-12-13T02:45:10.592Z,1019.10
2018-12-13T02:46:10.610Z,1019.12
2018-12-13T02:47:10.572Z,1019.11
2018-12-13T02:48:10.593Z,1019.08
2018-12-13T02:49:10.558Z,1019.08
2018-12-13T02:50:10.538Z,1019.13
2018-12-13T02:51:10.661Z,1019.13
2018-12-13T02:52:10.519Z,1019.09
2018-12-13T02:53:10.517Z,1019.12
2018-12-13T02:54:10.497Z,1019.10
2018-12-13T02:55:10.485Z,1019.16
2018-12-13T02:56:10.515Z,1019.07
2018-12-13T02:57:10.465Z,1019.06
2018-12-13T02:58:10.455Z,1019.13
2018-12-13T02:59:10.483Z,1019.10
2018-12-13T03:00:10.505Z,1019.08
2018-12-13T03:01:10.470Z,1019.03
2018-12-13T03:02:10.442Z,1018.97
2018-12-13T03:03:10.403Z,1018.98
2018-12-13T03:04:10.428Z,1018.99
2018-12-13T03:05:10.376Z,1018.97
2018-12-13T03:06:10.372Z,1018.93
2018-12-13T03:07:13.897Z,1018.92
2018-12-13T03:08:10.351Z,1018.86
2018-12-13T03:09:10.362Z,1018.87
2018-12-13T03:10:10.328Z,1018.85
2018-12-13T03:11:10.314Z,1018.80
2018-12-13T03:12:10.378Z,1018.81
2018-12-13T03:13:10.289Z,1018.87
2018-12-13T03:14:10.301Z,1018.84
2018-12-13T03:15:10.265Z,1018.76
2018-12-13T03:16:10.271Z,1018.85
2018-12-13T03:17:10.284Z,1018.73
2018-12-13T03:18:10.269Z,1018.78
2018-12-13T03:19:10.223Z,1018.73
2018-12-13T03:20:10.224Z,1018.72
2018-12-13T03:21:10.205Z,1018.64
2018-12-13T03:22:10.211Z,1018.65
2018-12-13T03:23:10.207Z,1018.68
2018-12-13T03:24:10.242Z,1018.65
2018-12-13T03:25:10.191Z,1018.67
2018-12-13T03:26:10.151Z,1018.62
2018-12-13T03:27:10.179Z,1018.62
2018-12-13T03:28:10.123Z,1018.64
2018-12-13T03:29:10.153Z,1018.62
2018-12-13T03:30:10.109Z,1018.60
2018-12-13T03:31:10.101Z,1018.64
2018-12-13T03:32:10.086Z,1018.57
2018-12-13T03:33:10.106Z,1018.62
2018-12-13T03:34:10.064Z,1018.61
2018-12-13T03:35:10.073Z,1018.60
2018-12-13T03:36:10.039Z,1018.57
2018-12-13T03:37:10.142Z,1018.55
2018-12-13T03:38:10.021Z,1018.56
2018-12-13T03:39:10.010Z,1018.51
2018-12-13T03:40:10.030Z,1018.46
2018-12-13T03:41:09.993Z,1018.50
2018-12-13T03:42:10.018Z,1018.40
2018-12-13T03:43:09.968Z,1018.40
2018-12-13T03:44:09.953Z,1018.42
2018-12-13T03:45:09.948Z,1018.38
2018-12-13T03:46:09.942Z,1018.44
2018-12-13T03:47:09.949Z,1018.40
2018-12-13T03:48:09.920Z,1018.39
2018-12-13T03:49:09.903Z,1018.40
2018-12-13T03:50:09.906Z,1018.35
2018-12-13T03:51:09.911Z,1018.41
2018-12-13T03:52:09.906Z,1018.39
2018-12-13T03:53:09.864Z,1018.37
2018-12-13T03:54:09.853Z,1018.48
2018-12-13T03:55:09.862Z,1018.43
2018-12-13T03:56:09.832Z,1018.39
2018-12-13T03:57:09.849Z,1018.39
2018-12-13T03:58:09.856Z,1018.39
2018-12-13T03:59:09.797Z,1018.34
2018-12-13T04:00:09.819Z,1018.34
2018-12-13T04:01:09.773Z,1018.37
2018-12-13T04:02:09.777Z,1018.38
2018-12-13T04:03:09.770Z,1018.42
2018-12-13T04:04:09.745Z,1018.39
2018-12-13T04:05:09.763Z,1018.41
2018-12-13T04:06:09.714Z,1018.42
2018-12-13T04:07:09.731Z,1018.44
2018-12-13T04:08:09.757Z,1018.42
2018-12-13T04:09:09.682Z,1018.41
2018-12-13T04:10:09.675Z,1018.40
2018-12-13T04:11:09.691Z,1018.46
2018-12-13T04:12:09.722Z,1018.39
2018-12-13T04:13:09.674Z,1018.36
2018-12-13T04:14:09.631Z,1018.34
2018-12-13T04:15:09.615Z,1018.41
2018-12-13T04:16:09.645Z,1018.40
2018-12-13T04:17:09.598Z,1018.29
2018-12-13T04:18:09.583Z,1018.27
2018-12-13T04:19:09.609Z,1018.32
2018-12-13T04:20:09.573Z,1018.32
2018-12-13T04:21:09.559Z,1018.29
2018-12-13T04:22:09.543Z,1018.33
2018-12-13T04:23:09.541Z,1018.26
2018-12-13T04:24:09.552Z,1018.29
2018-12-13T04:25:09.515Z,1018.23
2018-12-13T04:26:09.495Z,1018.26
2018-12-13T04:27:09.517Z,1018.25
2018-12-13T04:28:09.483Z,1018.25
2018-12-13T04:29:09.476Z,1018.28
2018-12-13T04:30:09.460Z,1018.16
2018-12-13T04:31:09.442Z,1018.27
2018-12-13T04:32:09.466Z,1018.24
2018-12-13T04:33:09.421Z,1018.26
2018-12-13T04:34:09.425Z,1018.25
2018-12-13T04:35:09.402Z,1018.29
2018-12-13T04:36:09.447Z,1018.23
2018-12-13T04:37:09.405Z,1018.28
2018-12-13T04:38:09.436Z,1018.29
2018-12-13T04:39:09.359Z,1018.28
2018-12-13T04:40:09.354Z,1018.27
2018-12-13T04:41:09.339Z,1018.22
2018-12-13T04:42:09.375Z,1018.22
2018-12-13T04:43:09.314Z,1018.16
2018-12-13T04:44:09.306Z,1018.26
2018-12-13T04:45:09.300Z,1018.16
2018-12-13T04:46:09.285Z,1018.20
2018-12-13T04:47:09.310Z,1018.26
2018-12-13T04:48:09.258Z,1018.28
2018-12-13T04:49:09.251Z,1018.19
2018-12-13T04:50:09.235Z,1018.21
2018-12-13T04:51:09.229Z,1018.15
2018-12-13T04:52:09.267Z,1018.18
2018-12-13T04:53:09.222Z,1018.15
2018-12-13T04:54:09.195Z,1018.22
2018-12-13T04:55:09.189Z,1018.14
2018-12-13T04:56:09.226Z,1018.15
2018-12-13T04:57:09.174Z,1018.16
2018-12-13T04:58:09.151Z,1018.18
2018-12-13T04:59:09.174Z,1018.12
2018-12-13T05:00:09.135Z,1018.19
2018-12-13T05:01:09.148Z,1018.11
2018-12-13T05:02:09.120Z,1018.14
2018-12-13T05:03:09.106Z,1018.11
2018-12-13T05:04:09.118Z,1018.12
2018-12-13T05:05:09.083Z,1018.12
2018-12-13T05:06:09.080Z,1018.20
2018-12-13T05:07:09.055Z,1018.18
2018-12-13T05:08:09.076Z,1018.17
2018-12-13T05:09:09.059Z,1018.17
2018-12-13T05:10:09.014Z,1018.15
2018-12-13T05:11:09.012Z,1018.19
2018-12-13T05:12:08.996Z,1018.13
2018-12-13T05:13:09.112Z,1018.13
2018-12-13T05:14:08.979Z,1018.11
2018-12-13T05:15:08.964Z,1018.10
2018-12-13T05:16:08.954Z,1018.11
2018-12-13T05:17:08.955Z,1018.14
2018-12-13T05:18:08.969Z,1018.19
2018-12-13T05:19:08.918Z,1018.09
2018-12-13T05:20:08.914Z,1018.08
2018-12-13T05:21:08.897Z,1018.02
2018-12-13T05:22:08.896Z,1018.03
2018-12-13T05:23:08.907Z,1018.01
2018-12-13T05:24:08.872Z,1018.03
2018-12-13T05:25:08.898Z,1018.04
2018-12-13T05:26:08.848Z,1018.00
2018-12-13T05:27:08.837Z,1018.00
2018-12-13T05:28:08.824Z,1018.07
2018-12-13T05:29:08.821Z,1018.12
2018-12-13T05:30:08.837Z,1018.04
2018-12-13T05:31:09.549Z,1018.13
2018-12-13T05:32:08.807Z,1018.02
2018-12-13T05:33:09.682Z,1017.98
2018-12-13T05:34:08.757Z,1018.03
2018-12-13T05:35:08.750Z,1018.07
2018-12-13T05:36:08.770Z,1018.04
2018-12-13T05:37:08.720Z,1018.06
2018-12-13T05:38:08.756Z,1018.04
2018-12-13T05:39:08.702Z,1018.07
2018-12-13T05:40:08.694Z,1018.00
2018-12-13T05:41:08.697Z,1018.07
2018-12-13T05:42:08.668Z,1018.01
2018-12-13T05:43:08.722Z,1018.04
2018-12-13T05:44:08.656Z,1018.05
2018-12-13T05:45:08.642Z,1018.06
2018-12-13T05:46:08.645Z,1018.08
2018-12-13T05:47:08.625Z,1018.11
2018-12-13T05:48:08.697Z,1018.09
2018-12-13T05:49:08.602Z,1018.13
2018-12-13T05:50:08.587Z,1018.12
2018-12-13T05:51:08.573Z,1018.14
2018-12-13T05:52:08.571Z,1018.11
2018-12-13T05:53:08.594Z,1018.13
2018-12-13T05:54:08.546Z,1018.18
2018-12-13T05:55:08.665Z,1018.15
2018-12-13T05:56:08.533Z,1018.14
2018-12-13T05:57:08.544Z,1018.13
2018-12-13T05:58:08.498Z,1018.14
2018-12-13T05:59:08.488Z,1018.09
2018-12-13T06:00:08.511Z,1018.14
2018-12-13T06:01:08.490Z,1018.08
2018-12-13T06:02:08.453Z,1018.05
2018-12-13T06:03:08.448Z,1018.11
2018-12-13T06:04:08.437Z,1018.06
2018-12-13T06:05:08.468Z,1018.06
2018-12-13T06:06:08.419Z,1018.02
2018-12-13T06:07:08.414Z,1018.10
2018-12-13T06:08:08.391Z,1018.05
2018-12-13T06:09:08.435Z,1018.03
2018-12-13T06:10:08.430Z,1018.04
2018-12-13T06:11:08.352Z,1018.01
2018-12-13T06:12:08.378Z,1018.08
2018-12-13T06:13:08.385Z,1018.06
2018-12-13T06:14:08.339Z,1018.02
2018-12-13T06:15:08.327Z,1018.02
2018-12-13T06:16:08.297Z,1018.04
2018-12-13T06:17:08.352Z,1018.03
2018-12-13T06:18:08.319Z,1017.99
2018-12-13T06:19:08.273Z,1018.07
2018-12-13T06:20:08.267Z,1018.04
2018-12-13T06:21:11.869Z,1018.11
2018-12-13T06:22:08.275Z,1018.14
2018-12-13T06:23:08.280Z,1018.01
2018-12-13T06:24:08.233Z,1018.07
2018-12-13T06:25:08.237Z,1018.09
2018-12-13T06:26:08.203Z,1018.04
2018-12-13T06:27:08.247Z,1018.10
2018-12-13T06:28:08.179Z,1018.15
2018-12-13T06:29:08.190Z,1018.16
2018-12-13T06:30:08.195Z,1018.12
2018-12-13T06:31:08.184Z,1018.08
2018-12-13T06:32:08.134Z,1018.12
2018-12-13T06:33:08.114Z,1018.19
2018-12-13T06:34:08.111Z,1018.15
2018-12-13T06:35:08.096Z,1018.11
2018-12-13T06:36:08.138Z,1018.12
2018-12-13T06:37:08.076Z,1018.16
2018-12-13T06:38:08.091Z,1018.18
2018-12-13T06:39:08.046Z,1018.22
2018-12-13T06:40:08.122Z,1018.17
2018-12-13T06:41:08.031Z,1018.23
2018-12-13T06:42:08.058Z,1018.14
2018-12-13T06:43:08.018Z,1018.14
2018-12-13T06:44:08.058Z,1018.23
2018-12-13T06:45:08.034Z,1018.16
2018-12-13T06:46:07.978Z,1018.13
2018-12-13T06:47:07.963Z,1018.13
2018-12-13T06:48:07.952Z,1018.14
2018-12-13T06:49:07.952Z,1018.06
2018-12-13T06:50:07.968Z,1018.16
2018-12-13T06:51:07.923Z,1018.10
2018-12-13T06:52:07.961Z,1018.13
2018-12-13T06:53:07.905Z,1018.10
2018-12-13T06:54:07.887Z,1018.15
2018-12-13T06:55:07.876Z,1018.09
2018-12-13T06:56:07.866Z,1018.08
2018-12-13T06:57:07.937Z,1018.10
2018-12-13T06:58:07.842Z,1018.16
2018-12-13T06:59:07.838Z,1018.08
2018-12-13T07:00:07.831Z,1018.10
2018-12-13T07:01:07.815Z,1018.13
2018-12-13T07:02:07.832Z,1018.09
2018-12-13T07:03:07.790Z,1018.05
2018-12-13T07:04:07.786Z,1018.07
2018-12-13T07:05:07.775Z,1018.03
2018-12-13T07:06:07.756Z,1018.08
2018-12-13T07:07:07.784Z,1018.16
2018-12-13T07:08:08.082Z,1018.20
2018-12-13T07:09:07.724Z,1018.12
2018-12-13T07:10:07.711Z,1018.15
2018-12-13T07:11:07.697Z,1018.12
2018-12-13T07:12:07.709Z,1018.12
2018-12-13T07:13:07.711Z,1018.15
2018-12-13T07:14:07.668Z,1018.18
2018-12-13T07:15:07.707Z,1018.16
2018-12-13T07:16:07.649Z,1018.18
2018-12-13T07:17:07.637Z,1018.23
2018-12-13T07:18:07.630Z,1018.22
2018-12-13T07:19:07.616Z,1018.21
2018-12-13T07:20:07.654Z,1018.22
2018-12-13T07:21:07.611Z,1018.23
2018-12-13T07:22:07.596Z,1018.27
2018-12-13T07:23:07.580Z,1018.23
2018-12-13T07:24:07.603Z,1018.28
2018-12-13T07:25:07.590Z,1018.32
2018-12-13T07:26:07.544Z,1018.32
2018-12-13T07:27:07.525Z,1018.32
2018-12-13T07:28:07.519Z,1018.26
2018-12-13T07:29:07.542Z,1018.25
2018-12-13T07:30:07.544Z,1018.30
2018-12-13T07:31:07.509Z,1018.29
2018-12-13T07:32:07.505Z,1018.31
2018-12-13T07:33:07.480Z,1018.39
2018-12-13T07:34:07.453Z,1018.29
2018-12-13T07:35:07.442Z,1018.32
2018-12-13T07:36:07.510Z,1018.40
2018-12-13T07:37:07.421Z,1018.35
2018-12-13T07:38:07.409Z,1018.39
2018-12-13T07:39:07.433Z,1018.40
2018-12-13T07:40:07.386Z,1018.39
2018-12-13T07:41:07.381Z,1018.47
2018-12-13T07:42:07.364Z,1018.40
2018-12-13T07:43:07.356Z,1018.38
2018-12-13T07:44:07.390Z,1018.35
2018-12-13T07:45:07.408Z,1018.35
2018-12-13T07:46:07.319Z,1018.38
2018-12-13T07:47:07.357Z,1018.41
2018-12-13T07:48:07.307Z,1018.34
2018-12-13T07:49:07.339Z,1018.35
2018-12-13T07:50:07.283Z,1018.32
2018-12-13T07:51:07.330Z,1018.39
2018-12-13T07:52:07.301Z,1018.38
2018-12-13T07:53:07.316Z,1018.41
2018-12-13T07:54:07.244Z,1018.35
2018-12-13T07:55:07.400Z,1018.38
2018-12-13T07:56:07.289Z,1018.43
2018-12-13T07:57:07.283Z,1018.45
2018-12-13T07:58:07.233Z,1018.45
2018-12-13T07:59:07.192Z,1018.47
2018-12-13T08:00:07.173Z,1018.48
2018-12-13T08:01:07.270Z,1018.46
2018-12-13T08:02:07.153Z,1018.43
2018-12-13T08:03:07.132Z,1018.44
2018-12-13T08:04:07.161Z,1018.44
2018-12-13T08:05:07.128Z,1018.52
2018-12-13T08:06:07.147Z,1018.55
2018-12-13T08:07:07.098Z,1018.50
2018-12-13T08:08:07.084Z,1018.49
2018-12-13T08:09:07.075Z,1018.49
2018-12-13T08:10:07.067Z,1018.54
2018-12-13T08:11:07.103Z,1018.53
2018-12-13T08:12:07.034Z,1018.48
2018-12-13T08:13:07.025Z,1018.50
2018-12-13T08:14:07.021Z,1018.48
2018-12-13T08:15:07.032Z,1018.46
2018-12-13T08:16:07.009Z,1018.48
2018-12-13T08:17:07.011Z,1018.39
2018-12-13T08:18:07.012Z,1018.53
2018-12-13T08:19:06.965Z,1018.47
2018-12-13T08:20:06.953Z,1018.53
2018-12-13T08:21:06.955Z,1018.41
2018-12-13T08:22:06.931Z,1018.57
2018-12-13T08:23:06.954Z,1018.52
2018-12-13T08:24:06.933Z,1018.55
2018-12-13T08:25:06.924Z,1018.54
2018-12-13T08:26:06.884Z,1018.52
2018-12-13T08:27:06.878Z,1018.61
2018-12-13T08:28:06.874Z,1018.63
2018-12-13T08:29:06.893Z,1018.61
2018-12-13T08:30:06.842Z,1018.55
2018-12-13T08:31:06.836Z,1018.60
2018-12-13T08:32:06.852Z,1018.53
2018-12-13T08:33:06.897Z,1018.54
2018-12-13T08:34:06.839Z,1018.56
2018-12-13T08:35:06.826Z,1018.59
2018-12-13T08:36:06.810Z,1018.57
2018-12-13T08:37:06.775Z,1018.51
2018-12-13T08:38:06.785Z,1018.60
2018-12-13T08:39:06.750Z,1018.57
2018-12-13T08:40:06.729Z,1018.54
2018-12-13T08:41:06.730Z,1018.59
2018-12-13T08:42:06.712Z,1018.59
2018-12-13T08:43:06.756Z,1018.53
2018-12-13T08:44:06.705Z,1018.52
2018-12-13T08:45:06.684Z,1018.51
2018-12-13T08:46:06.672Z,1018.47
2018-12-13T08:47:06.663Z,1018.60
2018-12-13T08:48:06.718Z,1018.50
2018-12-13T08:49:06.637Z,1018.53
2018-12-13T08:50:06.662Z,1018.46
2018-12-13T08:51:06.615Z,1018.52
2018-12-13T08:52:06.630Z,1018.50
2018-12-13T08:53:06.593Z,1018.51
2018-12-13T08:54:06.592Z,1018.50
2018-12-13T08:55:06.616Z,1018.50
2018-12-13T08:56:06.574Z,1018.48
2018-12-13T08:57:06.554Z,1018.45
2018-12-13T08:58:06.545Z,1018.45
2018-12-13T08:59:06.527Z,1018.45
2018-12-13T09:00:06.574Z,1018.37
2018-12-13T09:01:06.520Z,1018.42
2018-12-13T09:02:06.498Z,1018.46
2018-12-13T09:03:06.484Z,1018.52
2018-12-13T09:04:06.549Z,1018.49
2018-12-13T09:05:06.516Z,1018.41
2018-12-13T09:06:06.456Z,1018.42
2018-12-13T09:07:06.440Z,1018.45
2018-12-13T09:08:06.449Z,1018.44
2018-12-13T09:09:06.419Z,1018.42
2018-12-13T09:10:06.443Z,1018.44
2018-12-13T09:11:06.405Z,1018.51
2018-12-13T09:12:06.388Z,1018.50
2018-12-13T09:13:06.444Z,1018.49
2018-12-13T09:14:06.370Z,1018.49
2018-12-13T09:15:06.413Z,1018.49
2018-12-13T09:16:06.347Z,1018.51
2018-12-13T09:17:06.353Z,1018.53
2018-12-13T09:18:06.325Z,1018.48
2018-12-13T09:19:06.312Z,1018.52
2018-12-13T09:20:06.458Z,1018.53
2018-12-13T09:21:06.301Z,1018.57
2018-12-13T09:22:06.345Z,1018.52
2018-12-13T09:23:06.269Z,1018.49
2018-12-13T09:24:06.262Z,1018.49
2018-12-13T09:25:06.268Z,1018.50
2018-12-13T09:26:06.264Z,1018.47
2018-12-13T09:27:06.236Z,1018.46
2018-12-13T09:28:06.414Z,1018.38
2018-12-13T09:29:06.262Z,1018.47
2018-12-13T09:30:06.285Z,1018.45
2018-12-13T09:31:06.270Z,1018.43
2018-12-13T09:32:06.233Z,1018.49
2018-12-13T09:33:06.213Z,1018.53
2018-12-13T09:34:06.627Z,1018.49
2018-12-13T09:35:06.405Z,1018.53
2018-12-13T09:36:06.128Z,1018.48
2018-12-13T09:37:06.176Z,1018.48
2018-12-13T09:38:06.153Z,1018.50
2018-12-13T09:39:06.276Z,1018.47
2018-12-13T09:40:06.134Z,1018.57
2018-12-13T09:41:06.087Z,1018.49
2018-12-13T09:42:06.104Z,1018.50
2018-12-13T09:43:06.175Z,1018.47
2018-12-13T09:44:06.039Z,1018.48
2018-12-13T09:45:06.030Z,1018.48
2018-12-13T09:46:06.028Z,1018.53
2018-12-13T09:47:06.076Z,1018.45
2018-12-13T09:48:06.006Z,1018.48
2018-12-13T09:49:06.293Z,1018.47
2018-12-13T09:50:05.976Z,1018.52
2018-12-13T09:51:06.130Z,1018.48
2018-12-13T09:52:05.959Z,1018.43
2018-12-13T09:53:05.986Z,1018.44
2018-12-13T09:54:05.947Z,1018.41
2018-12-13T09:55:06.069Z,1018.37
2018-12-13T09:56:06.025Z,1018.39
2018-12-13T09:57:05.903Z,1018.37
2018-12-13T09:58:05.892Z,1018.43
2018-12-13T09:59:05.882Z,1018.35
2018-12-13T10:00:05.898Z,1018.33
2018-12-13T10:01:05.930Z,1018.34
2018-12-13T10:02:05.843Z,1018.32
2018-12-13T10:03:05.836Z,1018.29
2018-12-13T10:04:05.827Z,1018.32
2018-12-13T10:05:05.840Z,1018.34
2018-12-13T10:06:05.832Z,1018.30
2018-12-13T10:07:05.855Z,1018.27
2018-12-13T10:08:05.780Z,1018.27
2018-12-13T10:09:05.845Z,1018.30
2018-12-13T10:10:05.766Z,1018.27
2018-12-13T10:11:05.755Z,1018.23
2018-12-13T10:12:05.765Z,1018.20
2018-12-13T10:13:05.959Z,1018.16
2018-12-13T10:14:05.740Z,1018.14
2018-12-13T10:15:05.734Z,1018.18
2018-12-13T10:16:05.693Z,1018.14
2018-12-13T10:17:05.687Z,1018.13
2018-12-13T10:18:05.671Z,1018.08
2018-12-13T10:19:05.670Z,1018.09
2018-12-13T10:20:05.735Z,1018.08
2018-12-13T10:21:05.645Z,1018.09
2018-12-13T10:22:11.502Z,1018.07
2018-12-13T10:23:06.619Z,1018.10
2018-12-13T10:24:05.602Z,1018.05
2018-12-13T10:25:05.627Z,1018.04
2018-12-13T10:26:05.622Z,1018.07
2018-12-13T10:27:05.572Z,1017.99
2018-12-13T10:28:05.566Z,1018.04
2018-12-13T10:29:05.554Z,1018.02
2018-12-13T10:30:05.539Z,1018.01
2018-12-13T10:31:05.558Z,1018.01
2018-12-13T10:32:05.542Z,1018.01
2018-12-13T10:33:05.579Z,1017.97
2018-12-13T10:34:05.513Z,1017.97
2018-12-13T10:35:11.149Z,1017.99
2018-12-13T10:36:06.522Z,1017.94
2018-12-13T10:37:05.477Z,1017.99
2018-12-13T10:38:05.491Z,1017.98
2018-12-13T10:39:05.668Z,1017.96
2018-12-13T10:40:05.509Z,1017.98
2018-12-13T10:41:05.694Z,1018.02
2018-12-13T10:42:05.833Z,1017.97
2018-12-13T10:43:05.404Z,1018.00
2018-12-13T10:44:05.827Z,1017.99
2018-12-13T10:45:05.415Z,1017.98
2018-12-13T10:46:05.377Z,1017.95
2018-12-13T10:47:05.485Z,1017.91
2018-12-13T10:48:05.555Z,1017.88
2018-12-13T10:49:05.376Z,1017.93
2018-12-13T10:50:05.392Z,1017.90
2018-12-13T10:51:05.316Z,1017.87
2018-12-13T10:52:05.335Z,1017.90
2018-12-13T10:53:05.392Z,1017.82
2018-12-13T10:54:05.289Z,1017.87
2018-12-13T10:55:05.274Z,1017.84
2018-12-13T10:56:05.257Z,1017.92
2018-12-13T10:57:05.414Z,1017.89
2018-12-13T10:58:05.482Z,1017.87
2018-12-13T10:59:05.222Z,1017.87
2018-12-13T11:00:05.281Z,1017.81
2018-12-13T11:01:05.203Z,1017.85
2018-12-13T11:02:05.193Z,1017.77
2018-12-13T11:03:05.206Z,1017.79
2018-12-13T11:04:05.166Z,1017.90
2018-12-13T11:05:05.163Z,1017.78
2018-12-13T11:06:05.147Z,1017.80
2018-12-13T11:07:05.161Z,1017.80
2018-12-13T11:08:05.141Z,1017.77
2018-12-13T11:09:05.123Z,1017.85
2018-12-13T11:10:05.126Z,1017.84
2018-12-13T11:11:05.098Z,1017.83
2018-12-13T11:12:05.090Z,1017.78
2018-12-13T11:13:05.095Z,1017.80
2018-12-13T11:14:05.071Z,1017.84
2018-12-13T11:15:05.107Z,1017.81
2018-12-13T11:16:05.089Z,1017.72
2018-12-13T11:17:05.023Z,1017.69
2018-12-13T11:18:05.015Z,1017.67
2018-12-13T11:19:05.014Z,1017.67
2018-12-13T11:20:05.025Z,1017.62
2018-12-13T11:21:05.016Z,1017.67
2018-12-13T11:22:04.978Z,1017.62
2018-12-13T11:23:04.973Z,1017.65
2018-12-13T11:24:04.949Z,1017.66
2018-12-13T11:25:04.970Z,1017.63
2018-12-13T11:26:04.938Z,1017.60
2018-12-13T11:27:04.914Z,1017.64
2018-12-13T11:28:04.915Z,1017.63
2018-12-13T11:29:04.939Z,1017.59
2018-12-13T11:30:04.916Z,1017.60
2018-12-13T11:31:04.874Z,1017.60
2018-12-13T11:32:04.894Z,1017.55
2018-12-13T11:33:04.859Z,1017.58
2018-12-13T11:34:04.879Z,1017.58
2018-12-13T11:35:04.877Z,1017.49
2018-12-13T11:36:04.816Z,1017.59
2018-12-13T11:37:04.810Z,1017.54
2018-12-13T11:38:04.797Z,1017.58
2018-12-13T11:39:05.843Z,1017.55
2018-12-13T11:40:04.792Z,1017.52
2018-12-13T11:41:04.762Z,1017.54
2018-12-13T11:42:05.411Z,1017.52
2018-12-13T11:43:04.760Z,1017.55
2018-12-13T11:44:04.758Z,1017.51
2018-12-13T11:45:04.720Z,1017.56
2018-12-13T11:46:04.708Z,1017.44
2018-12-13T11:47:04.708Z,1017.47
2018-12-13T11:48:04.718Z,1017.49
2018-12-13T11:49:04.680Z,1017.41
2018-12-13T11:50:04.725Z,1017.44
2018-12-13T11:51:04.652Z,1017.43
2018-12-13T11:52:04.641Z,1017.39
2018-12-13T11:53:04.630Z,1017.38
2018-12-13T11:54:04.623Z,1017.36
2018-12-13T11:55:04.654Z,1017.42
2018-12-13T11:56:04.704Z,1017.34
2018-12-13T11:57:04.652Z,1017.40
2018-12-13T11:58:04.584Z,1017.38
2018-12-13T11:59:04.566Z,1017.35
2018-12-13T12:00:04.563Z,1017.38
2018-12-13T12:01:04.580Z,1017.31
2018-12-13T12:02:04.534Z,1017.31
2018-12-13T12:03:04.519Z,1017.28
2018-12-13T12:04:04.521Z,1017.24
2018-12-13T12:05:04.572Z,1017.29